createdAt,value
2019-02-16T00:00:47.894Z,100533.73
2019-02-16T00:03:20.635Z,100536.06
2019-02-16T00:05:51.459Z,100527.61
2019-02-16T00:08:22.730Z,100530.98
2019-02-16T00:10:53.520Z,100525.39
2019-02-16T00:13:24.529Z,100526.56
2019-02-16T00:15:55.404Z,100522.96
2019-02-16T00:18:26.314Z,100532.85
2019-02-16T00:21:03.798Z,100527.20
2019-02-16T00:23:29.662Z,100534.56
2019-02-16T00:26:00.593Z,100533.38
2019-02-16T00:28:31.845Z,100542.07
2019-02-16T00:31:02.797Z,100537.03
2019-02-16T00:33:33.683Z,100533.19
2019-02-16T00:36:04.954Z,100531.14
2019-02-16T00:38:37.186Z,100528.48
2019-02-16T00:41:08.167Z,100531.39
2019-02-16T00:43:39.153Z,100535.86
2019-02-16T00:46:09.958Z,100541.55
2019-02-16T00:48:41.040Z,100529.73
2019-02-16T00:51:13.865Z,100531.19
2019-02-16T00:53:45.286Z,100533.46
2019-02-16T00:56:16.128Z,100535.27
2019-02-16T00:58:46.907Z,100537.32
2019-02-16T01:01:17.789Z,100530.70
2019-02-16T01:03:48.571Z,100530.94
2019-02-16T01:06:19.908Z,100531.41
2019-02-16T01:08:50.868Z,100532.27
2019-02-16T01:11:21.956Z,100535.06
2019-02-16T01:13:52.826Z,100526.02
2019-02-16T01:16:23.824Z,100531.22
2019-02-16T01:18:54.631Z,100534.55
2019-02-16T01:21:25.567Z,100531.80
2019-02-16T01:23:56.522Z,100531.44
2019-02-16T01:26:27.385Z,100535.43
2019-02-16T01:28:58.256Z,100528.80
2019-02-16T01:31:29.169Z,100535.69
2019-02-16T01:34:00.053Z,100535.70
2019-02-16T01:36:30.957Z,100534.63
2019-02-16T01:39:01.803Z,100535.83
2019-02-16T01:41:34.237Z,100536.89
2019-02-16T01:44:05.856Z,100527.16
2019-02-16T01:46:36.726Z,100537.03
2019-02-16T01:49:07.406Z,100531.47
2019-02-16T01:51:38.356Z,100534.50
2019-02-16T01:54:09.392Z,100535.70
2019-02-16T01:56:40.344Z,100527.02
2019-02-16T01:59:11.309Z,100528.81
2019-02-16T02:01:42.469Z,100525.83
2019-02-16T02:04:13.300Z,100513.91
2019-02-16T02:06:44.179Z,100516.08
2019-02-16T02:09:15.283Z,100515.45
2019-02-16T02:11:46.184Z,100512.70
2019-02-16T02:14:17.263Z,100516.56
2019-02-16T02:16:48.060Z,100512.12
2019-02-16T02:19:20.125Z,100520.06
2019-02-16T02:21:50.950Z,100519.94
2019-02-16T02:24:21.788Z,100519.09
2019-02-16T02:26:52.775Z,100522.59
2019-02-16T02:29:23.568Z,100525.36
2019-02-16T02:31:54.570Z,100521.97
2019-02-16T02:34:25.325Z,100525.23
2019-02-16T02:36:56.233Z,100525.45
2019-02-16T02:39:27.107Z,100529.81
2019-02-16T02:41:58.020Z,100521.86
2019-02-16T02:44:28.793Z,100517.90
2019-02-16T02:46:59.682Z,100519.70
2019-02-16T02:49:30.576Z,100513.33
2019-02-16T02:52:02.866Z,100516.93
2019-02-16T02:54:33.762Z,100513.20
2019-02-16T02:57:04.808Z,100516.11
2019-02-16T02:59:35.763Z,100519.96
2019-02-16T03:02:07.140Z,100510.91
2019-02-16T03:04:37.932Z,100510.56
2019-02-16T03:07:08.935Z,100507.45
2019-02-16T03:09:39.819Z,100505.52
2019-02-16T03:12:10.719Z,100506.13
2019-02-16T03:14:41.581Z,100500.83
2019-02-16T03:17:12.475Z,100505.87
2019-02-16T03:19:45.307Z,100506.84
2019-02-16T03:22:16.192Z,100495.16
2019-02-16T03:24:46.989Z,100491.30
2019-02-16T03:27:37.331Z,100492.38
2019-02-16T03:30:42.716Z,100496.47
2019-02-16T03:33:57.173Z,100495.41
2019-02-16T03:37:02.209Z,100503.09
2019-02-16T03:39:39.854Z,100509.25
2019-02-16T03:42:10.656Z,100507.32
2019-02-16T03:44:41.550Z,100504.42
2019-02-16T03:47:12.313Z,100504.80
2019-02-16T03:49:43.392Z,100505.39
2019-02-16T03:52:14.653Z,100502.28
2019-02-16T03:54:45.851Z,100502.50
2019-02-16T03:57:16.757Z,100500.11
2019-02-16T03:59:47.738Z,100504.08
2019-02-16T04:02:19.641Z,100506.47
2019-02-16T04:04:50.431Z,100508.99
2019-02-16T04:07:21.437Z,100513.59
2019-02-16T04:09:52.298Z,100516.33
2019-02-16T04:12:23.382Z,100513.94
2019-02-16T04:14:54.192Z,100513.09
2019-02-16T04:17:25.101Z,100522.48
2019-02-16T04:19:55.875Z,100511.54
2019-02-16T04:22:26.853Z,100522.23
2019-02-16T04:24:57.630Z,100523.45
2019-02-16T04:27:28.461Z,100520.67
2019-02-16T04:29:59.343Z,100527.88
2019-02-16T04:32:30.131Z,100529.45
2019-02-16T04:35:01.069Z,100537.48
2019-02-16T04:37:31.972Z,100535.09
2019-02-16T04:40:02.857Z,100533.52
2019-02-16T04:42:34.294Z,100533.28
2019-02-16T04:45:05.605Z,100531.70
2019-02-16T04:47:36.434Z,100528.33
2019-02-16T04:50:07.209Z,100534.35
2019-02-16T04:52:38.088Z,100533.40
2019-02-16T04:55:09.606Z,100527.00
2019-02-16T04:57:40.451Z,100529.77
2019-02-16T05:00:11.628Z,100533.27
2019-02-16T05:02:42.538Z,100536.64
2019-02-16T05:05:13.409Z,100536.98
2019-02-16T05:07:44.297Z,100542.17
2019-02-16T05:10:15.316Z,100538.44
2019-02-16T05:12:46.189Z,100543.47
2019-02-16T05:15:17.062Z,100534.58
2019-02-16T05:17:47.657Z,100535.17
2019-02-16T05:20:18.832Z,100532.40
2019-02-16T05:22:49.628Z,100520.49
2019-02-16T05:25:20.879Z,100523.14
2019-02-16T05:27:51.709Z,100527.95
2019-02-16T05:30:22.598Z,100536.35
2019-02-16T05:32:53.442Z,100533.50
2019-02-16T05:35:24.335Z,100532.52
2019-02-16T05:37:55.292Z,100527.22
2019-02-16T05:40:26.194Z,100530.20
2019-02-16T05:42:57.235Z,100533.70
2019-02-16T05:45:28.190Z,100527.95
2019-02-16T05:47:59.069Z,100526.02
2019-02-16T05:50:29.859Z,100526.14
2019-02-16T05:53:00.850Z,100526.36
2019-02-16T05:55:31.625Z,100525.62
2019-02-16T05:58:02.502Z,100525.76
2019-02-16T06:00:33.346Z,100527.91
2019-02-16T06:03:04.280Z,100526.00
2019-02-16T06:05:35.416Z,100524.67
2019-02-16T06:08:06.220Z,100524.19
2019-02-16T06:10:37.109Z,100528.75
2019-02-16T06:13:07.989Z,100531.86
2019-02-16T06:15:38.884Z,100531.13
2019-02-16T06:18:09.804Z,100533.52
2019-02-16T06:20:40.716Z,100537.25
2019-02-16T06:23:11.594Z,100534.12
2019-02-16T06:25:42.372Z,100536.64
2019-02-16T06:28:13.208Z,100542.16
2019-02-16T06:30:44.249Z,100543.46
2019-02-16T06:33:15.090Z,100539.88
2019-02-16T06:35:56.328Z,100544.31
2019-02-16T06:38:27.307Z,100544.58
2019-02-16T06:40:58.204Z,100543.60
2019-02-16T06:43:29.097Z,100540.02
2019-02-16T06:46:00.962Z,100540.81
2019-02-16T06:48:31.832Z,100548.75
2019-02-16T06:51:02.625Z,100542.66
2019-02-16T06:53:33.517Z,100544.69
2019-02-16T06:56:09.789Z,100556.11
2019-02-16T06:58:40.785Z,100558.14
2019-02-16T07:01:11.605Z,100561.97
2019-02-16T07:03:42.488Z,100563.55
2019-02-16T07:06:13.621Z,100559.54
2019-02-16T07:08:44.442Z,100570.23
2019-02-16T07:11:15.582Z,100570.88
2019-02-16T07:13:46.529Z,100565.63
2019-02-16T07:16:35.040Z,100568.89
2019-02-16T07:19:24.717Z,100571.70
2019-02-16T07:21:55.703Z,100575.18
2019-02-16T07:24:26.718Z,100574.50
2019-02-16T07:26:57.590Z,100573.89
2019-02-16T07:29:28.370Z,100567.53
2019-02-16T07:31:59.282Z,100559.00
2019-02-16T07:34:30.155Z,100570.91
2019-02-16T07:37:01.053Z,100562.87
2019-02-16T07:39:31.940Z,100562.03
2019-02-16T07:42:02.894Z,100569.25
2019-02-16T07:44:52.639Z,100571.91
2019-02-16T07:47:54.503Z,100567.95
2019-02-16T07:50:44.282Z,100564.11
2019-02-16T07:53:20.735Z,100566.03
2019-02-16T07:56:09.103Z,100565.70
2019-02-16T07:58:57.652Z,100566.17
2019-02-16T08:01:46.149Z,100566.43
2019-02-16T08:04:51.341Z,100561.02
2019-02-16T08:07:43.918Z,100566.31
2019-02-16T08:10:21.194Z,100567.38
2019-02-16T08:12:58.976Z,100568.69
2019-02-16T08:15:50.460Z,100574.83
2019-02-16T08:18:49.284Z,100583.72
2019-02-16T08:21:41.932Z,100582.01
2019-02-16T08:24:29.869Z,100573.19
2019-02-16T08:27:28.871Z,100574.23
2019-02-16T08:30:15.985Z,100573.41
2019-02-16T08:33:08.530Z,100574.31
2019-02-16T08:35:57.081Z,100572.58
2019-02-16T08:38:46.862Z,100573.32
2019-02-16T08:41:26.812Z,100578.47
2019-02-16T08:44:15.261Z,100575.01
2019-02-16T08:46:55.927Z,100570.99
2019-02-16T08:49:58.053Z,100569.16
2019-02-16T08:52:47.878Z,100566.80
2019-02-16T08:55:33.488Z,100559.63
2019-02-16T08:58:14.844Z,100564.70
2019-02-16T09:01:22.751Z,100562.66
2019-02-16T09:04:15.501Z,100561.52
2019-02-16T09:07:04.051Z,100559.55
2019-02-16T09:09:47.080Z,100556.94
2019-02-16T09:12:35.727Z,100556.51
2019-02-16T09:15:35.137Z,100562.34
2019-02-16T09:18:23.891Z,100556.53
2019-02-16T09:21:14.134Z,100552.61
2019-02-16T09:23:59.149Z,100550.64
2019-02-16T09:26:50.773Z,100551.12
2019-02-16T09:29:40.964Z,100551.67
2019-02-16T09:32:29.618Z,100544.39
2019-02-16T09:35:29.126Z,100545.50
2019-02-16T09:38:31.398Z,100542.48
2019-02-16T09:41:14.026Z,100539.14
2019-02-16T09:44:02.871Z,100537.38
2019-02-16T09:46:55.724Z,100534.28
2019-02-16T09:49:45.507Z,100533.78
2019-02-16T09:52:38.662Z,100532.88
2019-02-16T09:55:17.998Z,100527.48
2019-02-16T09:57:57.732Z,100530.28
2019-02-16T10:00:47.627Z,100531.87
2019-02-16T10:03:32.493Z,100533.86
2019-02-16T10:06:34.368Z,100527.04
2019-02-16T10:09:24.545Z,100534.48
2019-02-16T10:12:22.524Z,100531.05
2019-02-16T10:15:15.470Z,100526.22
2019-02-16T10:18:06.788Z,100534.00
2019-02-16T10:20:54.932Z,100533.17
2019-02-16T10:23:44.590Z,100537.84
2019-02-16T10:26:23.329Z,100554.56
2019-02-16T10:29:11.881Z,100551.27
2019-02-16T10:31:55.313Z,100548.23
2019-02-16T10:34:42.534Z,100550.95
2019-02-16T10:37:32.109Z,100549.00
2019-02-16T10:40:22.001Z,100546.67
2019-02-16T10:43:11.774Z,100550.00
2019-02-16T10:46:06.980Z,100545.34
2019-02-16T10:48:44.147Z,100549.72
2019-02-16T10:51:49.100Z,100552.39
2019-02-16T10:54:38.889Z,100540.84
2019-02-16T10:57:28.765Z,100537.45
2019-02-16T11:00:31.878Z,100541.66
2019-02-16T11:03:20.511Z,100542.64
2019-02-16T11:06:06.818Z,100538.13
2019-02-16T11:08:56.694Z,100534.38
2019-02-16T11:11:58.660Z,100532.05
2019-02-16T11:14:54.585Z,100530.78
2019-02-16T11:18:02.694Z,100525.55
2019-02-16T11:20:51.451Z,100524.25
2019-02-16T11:23:39.181Z,100514.19
2019-02-16T11:26:38.234Z,100510.92
2019-02-16T11:29:34.307Z,100505.63
2019-02-16T11:32:24.189Z,100500.47
2019-02-16T11:35:05.266Z,100500.68
2019-02-16T11:37:41.111Z,100500.64
2019-02-16T11:40:36.942Z,100495.52
2019-02-16T11:43:19.890Z,100487.92
2019-02-16T11:46:00.124Z,100487.48
2019-02-16T11:48:46.008Z,100487.27
2019-02-16T11:51:31.145Z,100483.42
2019-02-16T11:54:13.077Z,100478.40
2019-02-16T11:57:06.031Z,100476.61
2019-02-16T11:59:49.771Z,100469.48
2019-02-16T12:02:42.316Z,100469.26
2019-02-16T12:05:32.300Z,100469.66
2019-02-16T12:08:20.212Z,100465.23
2019-02-16T12:11:10.056Z,100459.89
2019-02-16T12:13:58.671Z,100454.63
2019-02-16T12:17:03.916Z,100443.69
2019-02-16T12:19:50.386Z,100439.26
2019-02-16T12:22:26.616Z,100434.91
2019-02-16T12:25:14.978Z,100426.59
2019-02-16T12:28:10.645Z,100428.48
2019-02-16T12:30:59.197Z,100431.69
2019-02-16T12:33:51.948Z,100428.57
2019-02-16T12:36:49.305Z,100422.22
2019-02-16T12:39:33.145Z,100416.04
2019-02-16T12:42:25.164Z,100414.38
2019-02-16T12:45:14.960Z,100414.70
2019-02-16T12:48:03.207Z,100414.73
2019-02-16T12:50:45.204Z,100407.66
2019-02-16T12:53:41.127Z,100402.91
2019-02-16T12:56:29.677Z,100398.52
2019-02-16T12:59:15.594Z,100393.95
2019-02-16T13:02:04.658Z,100388.99
2019-02-16T13:05:06.496Z,100388.28
2019-02-16T13:07:48.706Z,100387.72
2019-02-16T13:10:36.329Z,100384.14
2019-02-16T13:13:41.085Z,100378.32
2019-02-16T13:16:30.839Z,100372.34
2019-02-16T13:19:34.972Z,100364.62
2019-02-16T13:22:17.428Z,100370.33
2019-02-16T13:25:00.516Z,100367.67
2019-02-16T13:27:56.358Z,100369.11
2019-02-16T13:30:43.398Z,100368.90
2019-02-16T13:33:48.261Z,100367.16
2019-02-16T13:36:38.041Z,100358.75
2019-02-16T13:39:22.701Z,100357.61
2019-02-16T13:42:11.150Z,100356.77
2019-02-16T13:45:09.872Z,100351.91
2019-02-16T13:47:54.929Z,100347.25
2019-02-16T13:50:34.378Z,100350.34
2019-02-16T13:53:23.106Z,100348.25
2019-02-16T13:56:11.553Z,100340.47
2019-02-16T13:59:00.721Z,100342.63
2019-02-16T14:01:39.055Z,100345.87
2019-02-16T14:04:37.106Z,100339.09
2019-02-16T14:07:25.862Z,100338.59
2019-02-16T14:10:08.913Z,100333.59
2019-02-16T14:12:55.899Z,100333.29
2019-02-16T14:15:34.828Z,100322.99
2019-02-16T14:18:05.820Z,100324.31
2019-02-16T14:20:38.609Z,100319.72
2019-02-16T14:23:09.141Z,100326.05
2019-02-16T14:25:49.743Z,100324.32
2019-02-16T14:28:20.732Z,100320.27
2019-02-16T14:30:51.640Z,100324.77
2019-02-16T14:33:22.514Z,100316.13
2019-02-16T14:35:53.294Z,100315.75
2019-02-16T14:38:29.968Z,100313.05
2019-02-16T14:41:00.896Z,100310.77
2019-02-16T14:43:33.662Z,100308.91
2019-02-16T14:46:04.434Z,100305.94
2019-02-16T14:48:35.503Z,100304.26
2019-02-16T14:51:06.407Z,100299.40
2019-02-16T14:53:37.288Z,100301.58
2019-02-16T14:56:08.173Z,100301.25
2019-02-16T14:58:39.317Z,100298.53
2019-02-16T15:01:10.273Z,100299.55
2019-02-16T15:03:41.264Z,100299.81
2019-02-16T15:06:12.040Z,100294.11
2019-02-16T15:08:42.932Z,100295.34
2019-02-16T15:11:13.806Z,100294.47
2019-02-16T15:13:45.155Z,100289.33
2019-02-16T15:16:16.102Z,100291.98
2019-02-16T15:18:47.277Z,100297.33
2019-02-16T15:21:18.069Z,100297.28
2019-02-16T15:23:49.113Z,100290.70
2019-02-16T15:26:28.101Z,100294.95
2019-02-16T15:28:52.595Z,100290.83
2019-02-16T15:31:23.372Z,100287.72
2019-02-16T15:33:54.323Z,100286.20
2019-02-16T15:36:25.153Z,100285.02
2019-02-16T15:38:57.875Z,100288.87
2019-02-16T15:41:28.669Z,100290.70
2019-02-16T15:43:59.641Z,100289.48
2019-02-16T15:46:30.433Z,100289.25
2019-02-16T15:49:01.611Z,100284.31
2019-02-16T15:51:34.800Z,100283.22
2019-02-16T15:54:05.652Z,100281.30
2019-02-16T15:56:36.540Z,100275.68
2019-02-16T15:59:09.539Z,100275.11
2019-02-16T16:01:40.290Z,100275.35
2019-02-16T16:04:11.633Z,100280.51
2019-02-16T16:06:42.713Z,100271.20
2019-02-16T16:09:37.060Z,100270.20
2019-02-16T16:12:36.957Z,100276.16
2019-02-16T16:15:30.117Z,100272.63
2019-02-16T16:18:18.718Z,100275.76
2019-02-16T16:21:00.416Z,100273.50
2019-02-16T16:23:48.784Z,100269.61
2019-02-16T16:26:37.563Z,100275.19
2019-02-16T16:29:26.219Z,100275.95
2019-02-16T16:32:04.808Z,100282.95
2019-02-16T16:35:03.403Z,100278.57
2019-02-16T16:37:49.824Z,100273.50
2019-02-16T16:40:28.156Z,100270.02
2019-02-16T16:43:10.958Z,100272.31
2019-02-16T16:45:59.711Z,100271.22
2019-02-16T16:48:51.953Z,100268.66
2019-02-16T16:51:41.830Z,100274.61
2019-02-16T16:54:18.707Z,100285.16
2019-02-16T16:57:14.428Z,100283.95
2019-02-16T17:00:01.544Z,100283.20
2019-02-16T17:02:53.065Z,100286.62
2019-02-16T17:05:42.950Z,100290.08
2019-02-16T17:08:21.803Z,100289.88
2019-02-16T17:11:12.992Z,100290.42
2019-02-16T17:14:12.767Z,100294.23
2019-02-16T17:17:08.626Z,100291.78
2019-02-16T17:19:58.379Z,100296.73
2019-02-16T17:22:50.956Z,100301.84
2019-02-16T17:25:46.875Z,100306.36
2019-02-16T17:28:42.904Z,100310.84
2019-02-16T17:31:22.440Z,100304.72
2019-02-16T17:34:05.668Z,100308.47
2019-02-16T17:36:47.518Z,100314.89
2019-02-16T17:39:40.233Z,100306.09
2019-02-16T17:42:22.414Z,100314.23
2019-02-16T17:45:09.839Z,100317.48
2019-02-16T17:48:06.583Z,100317.78
2019-02-16T17:50:54.111Z,100319.52
2019-02-16T17:53:49.830Z,100321.52
2019-02-16T17:56:25.652Z,100323.12
2019-02-16T17:59:11.339Z,100320.06
2019-02-16T18:01:57.159Z,100324.27
2019-02-16T18:04:39.150Z,100327.05
2019-02-16T18:07:47.105Z,100325.63
2019-02-16T18:10:35.915Z,100327.78
2019-02-16T18:13:24.283Z,100330.27
2019-02-16T18:16:16.909Z,100330.92
2019-02-16T18:19:02.185Z,100324.90
2019-02-16T18:21:47.153Z,100329.95
2019-02-16T18:24:34.232Z,100327.00
2019-02-16T18:27:27.019Z,100320.01
2019-02-16T18:30:16.800Z,100321.74
2019-02-16T18:33:12.929Z,100320.23
2019-02-16T18:36:02.721Z,100312.72
2019-02-16T18:39:01.603Z,100314.38
2019-02-16T18:42:04.900Z,100314.67
2019-02-16T18:45:01.566Z,100309.88
2019-02-16T18:47:50.217Z,100304.09
2019-02-16T18:50:35.984Z,100301.80
2019-02-16T18:53:29.472Z,100297.80
2019-02-16T18:56:19.597Z,100297.49
2019-02-16T18:59:09.625Z,100296.68
2019-02-16T19:02:05.672Z,100295.66
2019-02-16T19:04:58.411Z,100296.69
2019-02-16T19:07:43.952Z,100296.20
2019-02-16T19:10:36.848Z,100295.36
2019-02-16T19:13:25.231Z,100297.05
2019-02-16T19:16:16.256Z,100297.89
2019-02-16T19:19:05.461Z,100291.20
2019-02-16T19:22:13.367Z,100294.23
2019-02-16T19:25:05.913Z,100293.09
2019-02-16T19:27:55.793Z,100285.73
2019-02-16T19:30:44.347Z,100288.25
2019-02-16T19:33:26.752Z,100291.59
2019-02-16T19:36:19.709Z,100281.05
2019-02-16T19:39:06.321Z,100286.91
2019-02-16T19:41:48.619Z,100285.05
2019-02-16T19:44:33.795Z,100285.58
2019-02-16T19:47:26.611Z,100286.23
2019-02-16T19:50:16.330Z,100287.58
2019-02-16T19:53:12.655Z,100291.23
2019-02-16T19:56:05.611Z,100289.55
2019-02-16T19:58:54.060Z,100292.91
2019-02-16T20:01:44.250Z,100293.23
2019-02-16T20:04:43.454Z,100296.17
2019-02-16T20:07:25.764Z,100292.45
2019-02-16T20:10:06.832Z,100297.30
2019-02-16T20:12:59.378Z,100302.43
2019-02-16T20:15:49.161Z,100298.58
2019-02-16T20:18:37.811Z,100298.05
2019-02-16T20:21:26.262Z,100307.03
2019-02-16T20:24:04.945Z,100301.78
2019-02-16T20:27:00.807Z,100297.42
2019-02-16T20:29:40.038Z,100297.89
2019-02-16T20:32:29.818Z,100302.68
2019-02-16T20:35:25.638Z,100300.80
2019-02-16T20:38:14.396Z,100298.45
2019-02-16T20:41:03.152Z,100296.92
2019-02-16T20:44:05.019Z,100296.86
2019-02-16T20:46:47.219Z,100294.64
2019-02-16T20:49:52.087Z,100291.45
2019-02-16T20:52:40.402Z,100287.91
2019-02-16T20:55:16.560Z,100286.53
2019-02-16T20:58:01.530Z,100290.14
2019-02-16T21:00:54.488Z,100292.28
2019-02-16T21:03:34.434Z,100296.11
2019-02-16T21:06:30.055Z,100284.72
2019-02-16T21:09:19.829Z,100287.55
2019-02-16T21:12:21.590Z,100290.50
2019-02-16T21:15:01.442Z,100287.47
2019-02-16T21:18:09.597Z,100286.74
2019-02-16T21:20:57.895Z,100284.39
2019-02-16T21:23:46.453Z,100287.13
2019-02-16T21:26:36.307Z,100280.53
2019-02-16T21:29:12.918Z,100272.39
2019-02-16T21:31:58.284Z,100273.55
2019-02-16T21:34:53.774Z,100279.43
2019-02-16T21:37:46.444Z,100268.28
2019-02-16T21:40:29.979Z,100276.39
2019-02-16T21:43:19.755Z,100266.75
2019-02-16T21:46:15.585Z,100274.36
2019-02-16T21:48:52.664Z,100273.67
2019-02-16T21:51:42.380Z,100269.47
2019-02-16T21:54:35.190Z,100272.66
2019-02-16T21:57:25.176Z,100271.09
2019-02-16T22:00:30.009Z,100267.68
2019-02-16T22:03:31.416Z,100274.19
2019-02-16T22:06:21.141Z,100273.26
2019-02-16T22:09:09.794Z,100268.21
2019-02-16T22:12:02.934Z,100271.54
2019-02-16T22:14:33.843Z,100266.39
2019-02-16T22:17:04.834Z,100269.64
2019-02-16T22:19:36.006Z,100270.25
2019-02-16T22:22:09.063Z,100263.87
2019-02-16T22:24:40.122Z,100268.74
2019-02-16T22:27:10.946Z,100270.86
2019-02-16T22:29:41.939Z,100271.49
2019-02-16T22:32:12.821Z,100270.47
2019-02-16T22:34:43.716Z,100273.06
2019-02-16T22:37:16.555Z,100271.19
2019-02-16T22:39:47.610Z,100267.98
2019-02-16T22:42:18.827Z,100268.67
2019-02-16T22:44:49.710Z,100276.20
2019-02-16T22:47:20.703Z,100272.20
2019-02-16T22:49:51.878Z,100275.50
2019-02-16T22:52:23.504Z,100273.08
2019-02-16T22:54:54.303Z,100266.84
2019-02-16T22:57:25.172Z,100267.63
2019-02-16T22:59:56.344Z,100267.30
2019-02-16T23:02:27.250Z,100263.61
2019-02-16T23:04:58.260Z,100259.41
2019-02-16T23:07:29.131Z,100269.64
2019-02-16T23:10:00.259Z,100269.50
2019-02-16T23:12:31.396Z,100276.52
2019-02-16T23:15:02.700Z,100275.52
2019-02-16T23:17:34.426Z,100275.52
2019-02-16T23:20:05.951Z,100271.90
2019-02-16T23:22:37.020Z,100272.81
2019-02-16T23:25:08.116Z,100269.38
2019-02-16T23:27:39.101Z,100274.33
2019-02-16T23:30:10.490Z,100277.35
2019-02-16T23:32:41.299Z,100269.78
2019-02-16T23:35:12.397Z,100270.86
2019-02-16T23:37:43.277Z,100265.54
2019-02-16T23:40:14.248Z,100267.69
2019-02-16T23:42:45.042Z,100267.42
2019-02-16T23:45:17.342Z,100267.98
2019-02-16T23:47:48.147Z,100268.47
2019-02-16T23:50:18.975Z,100262.67
2019-02-16T23:52:50.686Z,100257.57
2019-02-16T23:55:21.594Z,100259.72
2019-02-16T23:57:52.410Z,100255.39
